sensor_id;sensor_type;location;lat;lon;timestamp;P1;durP1;ratioP1;P2;durP2;ratioP2
49800;SDS011;35698;50.232;30.540;2022-07-09T13:54:47;4.74;;;2.96;;
49800;SDS011;35698;50.232;30.540;2022-07-09T13:55:51;4.11;;;2.98;;
49800;SDS011;35698;50.232;30.540;2022-07-09T13:57:02;4.66;;;3.28;;
49800;SDS011;35698;50.232;30.540;2022-07-09T13:58:06;5.04;;;3.18;;
49800;SDS011;35698;50.232;30.540;2022-07-09T13:59:10;4.14;;;3.18;;
49800;SDS011;35698;50.232;30.540;2022-07-09T14:00:14;6.65;;;3.72;;
49800;SDS011;35698;50.232;30.540;2022-07-09T14:01:18;7.79;;;3.43;;
49800;SDS011;35698;50.232;30.540;2022-07-09T14:02:21;3.63;;;3.12;;
49800;SDS011;35698;50.232;30.540;2022-07-09T14:03:25;5.37;;;3.31;;
49800;SDS011;35698;50.232;30.540;2022-07-09T14:04:36;7.39;;;4.29;;
49800;SDS011;35698;50.232;30.540;2022-07-09T14:05:40;5.36;;;3.34;;
49800;SDS011;35698;50.232;30.540;2022-07-09T14:06:43;5.53;;;3.31;;
49800;SDS011;35698;50.232;30.540;2022-07-09T14:07:49;4.03;;;3.64;;
49800;SDS011;35698;50.232;30.540;2022-07-09T14:08:52;3.41;;;3.04;;
49800;SDS011;35698;50.232;30.540;2022-07-09T14:10:03;3.61;;;3.02;;
49800;SDS011;35698;50.232;30.540;2022-07-09T14:11:08;4.56;;;3.10;;
49800;SDS011;35698;50.232;30.540;2022-07-09T14:12:30;4.50;;;2.89;;
49800;SDS011;35698;50.232;30.540;2022-07-09T14:13:37;3.32;;;3.02;;
49800;SDS011;35698;50.232;30.540;2022-07-09T14:14:59;3.62;;;2.91;;
49800;SDS011;35698;50.232;30.540;2022-07-09T14:16:11;3.74;;;3.09;;
49800;SDS011;35698;50.232;30.540;2022-07-09T14:17:15;7.76;;;3.05;;
49800;SDS011;35698;50.232;30.540;2022-07-09T14:18:26;5.27;;;3.08;;
49800;SDS011;35698;50.232;30.540;2022-07-09T14:19:30;15.21;;;13.75;;
49800;SDS011;35698;50.232;30.540;2022-07-09T14:20:33;6.14;;;5.31;;
49800;SDS011;35698;50.232;30.540;2022-07-09T14:21:45;6.43;;;3.08;;
49800;SDS011;35698;50.232;30.540;2022-07-09T14:22:49;4.29;;;3.49;;
49800;SDS011;35698;50.232;30.540;2022-07-09T14:23:53;3.56;;;2.81;;
49800;SDS011;35698;50.232;30.540;2022-07-09T14:24:57;3.47;;;3.13;;
49800;SDS011;35698;50.232;30.540;2022-07-09T14:26:01;4.92;;;3.15;;
49800;SDS011;35698;50.232;30.540;2022-07-09T14:27:04;4.46;;;2.68;;
49800;SDS011;35698;50.232;30.540;2022-07-09T14:28:16;4.34;;;2.66;;
49800;SDS011;35698;50.232;30.540;2022-07-09T14:29:20;4.09;;;2.62;;
49800;SDS011;35698;50.232;30.540;2022-07-09T14:30:32;4.07;;;2.73;;
49800;SDS011;35698;50.232;30.540;2022-07-09T14:31:36;5.16;;;2.84;;
49800;SDS011;35698;50.232;30.540;2022-07-09T14:32:48;5.65;;;2.68;;
49800;SDS011;35698;50.232;30.540;2022-07-09T14:38:27;7.83;;;3.02;;
49800;SDS011;35698;50.232;30.540;2022-07-09T14:39:30;5.01;;;2.72;;
49800;SDS011;35698;50.232;30.540;2022-07-09T14:40:34;4.26;;;2.98;;
49800;SDS011;35698;50.232;30.540;2022-07-09T14:41:37;5.28;;;3.07;;
49800;SDS011;35698;50.232;30.540;2022-07-09T14:42:42;3.45;;;2.84;;
49800;SDS011;35698;50.232;30.540;2022-07-09T14:43:53;4.31;;;2.95;;
49800;SDS011;35698;50.232;30.540;2022-07-09T14:44:57;4.48;;;2.85;;
49800;SDS011;35698;50.232;30.540;2022-07-09T14:51:48;5.12;;;3.12;;
49800;SDS011;35698;50.232;30.540;2022-07-09T14:57:46;3.60;;;2.58;;
49800;SDS011;35698;50.232;30.540;2022-07-09T14:58:57;6.68;;;2.86;;
49800;SDS011;35698;50.232;30.540;2022-07-09T15:00:02;3.46;;;3.06;;
49800;SDS011;35698;50.232;30.540;2022-07-09T15:01:06;3.29;;;2.95;;
49800;SDS011;35698;50.232;30.540;2022-07-09T15:02:22;4.73;;;2.99;;
49800;SDS011;35698;50.232;30.540;2022-07-09T15:03:26;7.39;;;3.22;;
49800;SDS011;35698;50.232;30.540;2022-07-09T15:04:32;6.10;;;3.18;;
49800;SDS011;35698;50.232;30.540;2022-07-09T15:05:56;4.12;;;2.96;;
49800;SDS011;35698;50.232;30.540;2022-07-09T15:07:19;6.11;;;3.23;;
49800;SDS011;35698;50.232;30.540;2022-07-09T15:08:36;5.69;;;3.19;;
49800;SDS011;35698;50.232;30.540;2022-07-09T15:09:40;3.69;;;3.21;;
49800;SDS011;35698;50.232;30.540;2022-07-09T15:10:44;4.46;;;3.34;;
49800;SDS011;35698;50.232;30.540;2022-07-09T15:11:55;5.76;;;3.22;;
49800;SDS011;35698;50.232;30.540;2022-07-09T15:12:59;5.27;;;3.29;;
49800;SDS011;35698;50.232;30.540;2022-07-09T15:14:04;3.59;;;3.11;;
49800;SDS011;35698;50.232;30.540;2022-07-09T15:15:07;4.44;;;3.21;;
49800;SDS011;35698;50.232;30.540;2022-07-09T15:16:12;8.92;;;3.71;;
49800;SDS011;35698;50.232;30.540;2022-07-09T15:17:23;3.95;;;3.24;;
49800;SDS011;35698;50.232;30.540;2022-07-09T15:18:27;4.30;;;3.19;;
49800;SDS011;35698;50.232;30.540;2022-07-09T15:19:31;7.22;;;3.24;;
49800;SDS011;35698;50.232;30.540;2022-07-09T15:20:35;7.15;;;3.44;;
49800;SDS011;35698;50.232;30.540;2022-07-09T15:24:56;4.23;;;3.02;;
49800;SDS011;35698;50.232;30.540;2022-07-09T15:47:56;3.98;;;3.61;;
49800;SDS011;35698;50.232;30.540;2022-07-09T15:49:00;4.49;;;3.08;;
49800;SDS011;35698;50.232;30.540;2022-07-09T15:50:11;6.65;;;3.99;;
49800;SDS011;35698;50.232;30.540;2022-07-09T15:51:16;4.32;;;3.61;;
49800;SDS011;35698;50.232;30.540;2022-07-09T15:52:38;4.10;;;3.63;;
49800;SDS011;35698;50.232;30.540;2022-07-09T15:53:42;5.31;;;3.81;;
49800;SDS011;35698;50.232;30.540;2022-07-09T15:54:46;4.01;;;3.63;;
49800;SDS011;35698;50.232;30.540;2022-07-09T15:55:49;5.82;;;3.51;;
49800;SDS011;35698;50.232;30.540;2022-07-09T15:56:53;5.23;;;3.81;;
49800;SDS011;35698;50.232;30.540;2022-07-09T15:57:57;4.58;;;3.96;;
49800;SDS011;35698;50.232;30.540;2022-07-09T15:59:01;6.08;;;3.70;;
49800;SDS011;35698;50.232;30.540;2022-07-09T16:00:12;3.93;;;3.59;;
49800;SDS011;35698;50.232;30.540;2022-07-09T16:01:16;6.07;;;3.83;;
49800;SDS011;35698;50.232;30.540;2022-07-09T16:02:20;4.72;;;3.81;;
49800;SDS011;35698;50.232;30.540;2022-07-09T16:03:24;4.94;;;3.81;;
49800;SDS011;35698;50.232;30.540;2022-07-09T16:04:28;5.66;;;3.51;;
49800;SDS011;35698;50.232;30.540;2022-07-09T16:05:39;6.93;;;3.78;;
49800;SDS011;35698;50.232;30.540;2022-07-09T16:06:46;6.04;;;3.73;;
49800;SDS011;35698;50.232;30.540;2022-07-09T16:08:16;7.22;;;3.54;;
49800;SDS011;35698;50.232;30.540;2022-07-09T16:09:20;9.25;;;3.61;;
49800;SDS011;35698;50.232;30.540;2022-07-09T16:10:27;6.16;;;3.46;;
49800;SDS011;35698;50.232;30.540;2022-07-09T16:11:31;4.31;;;2.99;;
49800;SDS011;35698;50.232;30.540;2022-07-09T16:12:34;7.24;;;2.92;;
49800;SDS011;35698;50.232;30.540;2022-07-09T16:13:46;3.36;;;3.07;;
49800;SDS011;35698;50.232;30.540;2022-07-09T16:14:50;5.03;;;3.47;;
49800;SDS011;35698;50.232;30.540;2022-07-09T16:17:17;3.92;;;3.19;;
49800;SDS011;35698;50.232;30.540;2022-07-09T16:18:20;3.64;;;3.02;;
49800;SDS011;35698;50.232;30.540;2022-07-09T16:19:24;4.73;;;3.41;;
49800;SDS011;35698;50.232;30.540;2022-07-09T16:20:28;4.39;;;3.31;;
49800;SDS011;35698;50.232;30.540;2022-07-09T16:21:39;3.74;;;3.18;;
49800;SDS011;35698;50.232;30.540;2022-07-09T16:22:42;3.94;;;3.20;;
49800;SDS011;35698;50.232;30.540;2022-07-09T16:23:46;7.47;;;3.61;;
49800;SDS011;35698;50.232;30.540;2022-07-09T16:24:52;4.25;;;3.27;;
49800;SDS011;35698;50.232;30.540;2022-07-09T16:26:03;4.65;;;3.29;;
49800;SDS011;35698;50.232;30.540;2022-07-09T16:27:07;4.50;;;3.18;;
49800;SDS011;35698;50.232;30.540;2022-07-09T16:28:10;7.40;;;3.24;;
49800;SDS011;35698;50.232;30.540;2022-07-09T16:29:16;7.91;;;3.86;;
49800;SDS011;35698;50.232;30.540;2022-07-09T16:30:21;6.82;;;3.55;;
49800;SDS011;35698;50.232;30.540;2022-07-09T16:31:25;4.41;;;3.48;;
49800;SDS011;35698;50.232;30.540;2022-07-09T16:32:29;4.49;;;3.48;;
49800;SDS011;35698;50.232;30.540;2022-07-09T16:33:35;6.72;;;3.72;;
49800;SDS011;35698;50.232;30.540;2022-07-09T16:34:39;5.30;;;3.42;;
49800;SDS011;35698;50.232;30.540;2022-07-09T16:35:42;3.76;;;3.40;;
49800;SDS011;35698;50.232;30.540;2022-07-09T16:36:46;4.33;;;3.31;;
49800;SDS011;35698;50.232;30.540;2022-07-09T16:37:49;5.36;;;3.51;;
49800;SDS011;35698;50.232;30.540;2022-07-09T16:38:53;7.75;;;5.31;;
49800;SDS011;35698;50.232;30.540;2022-07-09T16:39:57;6.03;;;5.11;;
49800;SDS011;35698;50.232;30.540;2022-07-09T16:41:01;5.54;;;4.79;;
49800;SDS011;35698;50.232;30.540;2022-07-09T16:42:12;8.65;;;4.94;;
49800;SDS011;35698;50.232;30.540;2022-07-09T16:43:16;7.77;;;5.09;;
49800;SDS011;35698;50.232;30.540;2022-07-09T16:44:19;5.90;;;5.13;;
49800;SDS011;35698;50.232;30.540;2022-07-09T16:45:31;6.67;;;4.97;;
49800;SDS011;35698;50.232;30.540;2022-07-09T16:46:34;10.76;;;5.21;;
49800;SDS011;35698;50.232;30.540;2022-07-09T16:47:38;6.34;;;5.11;;
49800;SDS011;35698;50.232;30.540;2022-07-09T16:48:42;10.27;;;6.37;;
49800;SDS011;35698;50.232;30.540;2022-07-09T16:49:47;9.93;;;6.90;;
49800;SDS011;35698;50.232;30.540;2022-07-09T16:50:58;11.29;;;8.37;;
49800;SDS011;35698;50.232;30.540;2022-07-09T16:52:01;10.30;;;7.83;;
49800;SDS011;35698;50.232;30.540;2022-07-09T16:53:05;10.08;;;6.34;;
49800;SDS011;35698;50.232;30.540;2022-07-09T16:56:26;8.62;;;5.61;;
49800;SDS011;35698;50.232;30.540;2022-07-09T16:57:38;7.04;;;4.73;;
49800;SDS011;35698;50.232;30.540;2022-07-09T16:58:41;5.84;;;4.92;;
49800;SDS011;35698;50.232;30.540;2022-07-09T16:59:45;7.56;;;4.72;;
49800;SDS011;35698;50.232;30.540;2022-07-09T17:03:17;6.30;;;4.20;;
49800;SDS011;35698;50.232;30.540;2022-07-09T17:04:29;5.29;;;4.02;;
49800;SDS011;35698;50.232;30.540;2022-07-09T17:05:34;7.74;;;5.66;;
49800;SDS011;35698;50.232;30.540;2022-07-09T17:06:38;10.85;;;6.18;;
49800;SDS011;35698;50.232;30.540;2022-07-09T17:07:42;6.58;;;4.46;;
49800;SDS011;35698;50.232;30.540;2022-07-09T17:08:45;4.55;;;3.68;;
49800;SDS011;35698;50.232;30.540;2022-07-09T17:09:49;5.40;;;4.13;;
49800;SDS011;35698;50.232;30.540;2022-07-09T17:11:01;6.77;;;4.76;;
49800;SDS011;35698;50.232;30.540;2022-07-09T17:12:05;5.22;;;4.56;;
49800;SDS011;35698;50.232;30.540;2022-07-09T17:13:09;5.14;;;4.15;;
49800;SDS011;35698;50.232;30.540;2022-07-09T17:14:13;5.05;;;4.09;;
49800;SDS011;35698;50.232;30.540;2022-07-09T17:15:17;9.09;;;4.60;;
49800;SDS011;35698;50.232;30.540;2022-07-09T17:16:21;6.80;;;5.09;;
49800;SDS011;35698;50.232;30.540;2022-07-09T17:17:25;7.12;;;4.86;;
49800;SDS011;35698;50.232;30.540;2022-07-09T17:18:29;8.85;;;6.59;;
49800;SDS011;35698;50.232;30.540;2022-07-09T17:19:33;7.26;;;5.26;;
49800;SDS011;35698;50.232;30.540;2022-07-09T17:20:37;6.65;;;4.74;;
49800;SDS011;35698;50.232;30.540;2022-07-09T17:21:48;9.29;;;5.12;;
49800;SDS011;35698;50.232;30.540;2022-07-09T17:22:52;6.15;;;4.81;;
49800;SDS011;35698;50.232;30.540;2022-07-09T17:23:55;8.79;;;5.37;;
49800;SDS011;35698;50.232;30.540;2022-07-09T17:24:59;6.88;;;4.96;;
49800;SDS011;35698;50.232;30.540;2022-07-09T17:26:10;8.92;;;7.96;;
49800;SDS011;35698;50.232;30.540;2022-07-09T17:27:14;13.56;;;9.16;;
49800;SDS011;35698;50.232;30.540;2022-07-09T17:28:17;15.92;;;10.04;;
49800;SDS011;35698;50.232;30.540;2022-07-09T17:29:21;11.84;;;10.40;;
49800;SDS011;35698;50.232;30.540;2022-07-09T17:30:26;13.52;;;10.14;;
49800;SDS011;35698;50.232;30.540;2022-07-09T17:31:29;14.97;;;10.56;;
49800;SDS011;35698;50.232;30.540;2022-07-09T17:33:53;16.28;;;10.98;;
49800;SDS011;35698;50.232;30.540;2022-07-09T17:35:15;18.89;;;9.94;;
49800;SDS011;35698;50.232;30.540;2022-07-09T17:36:26;8.49;;;6.37;;
49800;SDS011;35698;50.232;30.540;2022-07-09T17:37:31;10.91;;;6.27;;
49800;SDS011;35698;50.232;30.540;2022-07-09T17:38:52;8.33;;;6.52;;
49800;SDS011;35698;50.232;30.540;2022-07-09T17:39:55;11.73;;;8.55;;
49800;SDS011;35698;50.232;30.540;2022-07-09T17:40:59;16.73;;;9.63;;
49800;SDS011;35698;50.232;30.540;2022-07-09T17:42:03;14.31;;;9.66;;
49800;SDS011;35698;50.232;30.540;2022-07-09T17:43:07;12.91;;;10.15;;
49800;SDS011;35698;50.232;30.540;2022-07-09T17:44:18;17.09;;;10.46;;
49800;SDS011;35698;50.232;30.540;2022-07-09T17:45:22;12.18;;;9.43;;
49800;SDS011;35698;50.232;30.540;2022-07-09T17:46:33;13.79;;;9.96;;
49800;SDS011;35698;50.232;30.540;2022-07-09T17:47:37;15.37;;;8.06;;
49800;SDS011;35698;50.232;30.540;2022-07-09T17:48:59;9.50;;;6.42;;
49800;SDS011;35698;50.232;30.540;2022-07-09T17:50:03;10.02;;;5.66;;
49800;SDS011;35698;50.232;30.540;2022-07-09T17:51:07;7.93;;;5.77;;
49800;SDS011;35698;50.232;30.540;2022-07-09T17:52:11;6.35;;;5.05;;
49800;SDS011;35698;50.232;30.540;2022-07-09T17:53:15;7.00;;;5.22;;
49800;SDS011;35698;50.232;30.540;2022-07-09T17:54:18;9.72;;;6.51;;
49800;SDS011;35698;50.232;30.540;2022-07-09T17:55:21;7.61;;;6.32;;
49800;SDS011;35698;50.232;30.540;2022-07-09T17:56:25;12.38;;;7.28;;
49800;SDS011;35698;50.232;30.540;2022-07-09T17:57:29;9.44;;;6.55;;
49800;SDS011;35698;50.232;30.540;2022-07-09T17:58:41;9.49;;;6.86;;
49800;SDS011;35698;50.232;30.540;2022-07-09T17:59:56;8.98;;;6.13;;
49800;SDS011;35698;50.232;30.540;2022-07-09T18:01:07;7.31;;;5.62;;
49800;SDS011;35698;50.232;30.540;2022-07-09T18:02:11;8.20;;;5.98;;
49800;SDS011;35698;50.232;30.540;2022-07-09T18:03:16;6.97;;;5.13;;
49800;SDS011;35698;50.232;30.540;2022-07-09T18:04:19;6.36;;;5.22;;
49800;SDS011;35698;50.232;30.540;2022-07-09T18:05:23;6.31;;;4.78;;
49800;SDS011;35698;50.232;30.540;2022-07-09T18:06:27;4.80;;;4.40;;
49800;SDS011;35698;50.232;30.540;2022-07-09T18:07:31;6.47;;;4.40;;
49800;SDS011;35698;50.232;30.540;2022-07-09T18:08:35;6.43;;;4.36;;
49800;SDS011;35698;50.232;30.540;2022-07-09T18:09:39;6.56;;;4.55;;
49800;SDS011;35698;50.232;30.540;2022-07-09T18:10:43;5.46;;;4.18;;
49800;SDS011;35698;50.232;30.540;2022-07-09T18:11:47;8.30;;;4.69;;
49800;SDS011;35698;50.232;30.540;2022-07-09T18:12:58;10.92;;;4.95;;
49800;SDS011;35698;50.232;30.540;2022-07-09T18:14:02;5.20;;;4.33;;
49800;SDS011;35698;50.232;30.540;2022-07-09T18:15:06;11.22;;;4.65;;
49800;SDS011;35698;50.232;30.540;2022-07-09T18:16:17;5.80;;;5.12;;
49800;SDS011;35698;50.232;30.540;2022-07-09T18:17:21;6.94;;;4.86;;
49800;SDS011;35698;50.232;30.540;2022-07-09T18:18:32;5.44;;;4.48;;
49800;SDS011;35698;50.232;30.540;2022-07-09T18:19:36;8.54;;;4.62;;
49800;SDS011;35698;50.232;30.540;2022-07-09T18:20:39;7.10;;;4.86;;
49800;SDS011;35698;50.232;30.540;2022-07-09T18:21:43;5.36;;;4.26;;
49800;SDS011;35698;50.232;30.540;2022-07-09T18:22:54;5.17;;;4.67;;
49800;SDS011;35698;50.232;30.540;2022-07-09T18:23:58;5.87;;;4.35;;
49800;SDS011;35698;50.232;30.540;2022-07-09T18:25:03;7.42;;;4.72;;
49800;SDS011;35698;50.232;30.540;2022-07-09T18:26:08;6.45;;;4.92;;
49800;SDS011;35698;50.232;30.540;2022-07-09T18:27:12;7.30;;;5.01;;
49800;SDS011;35698;50.232;30.540;2022-07-09T18:28:18;8.94;;;5.32;;
49800;SDS011;35698;50.232;30.540;2022-07-09T18:29:21;5.76;;;5.20;;
49800;SDS011;35698;50.232;30.540;2022-07-09T18:30:32;6.61;;;5.42;;
49800;SDS011;35698;50.232;30.540;2022-07-09T18:31:36;6.03;;;5.43;;
49800;SDS011;35698;50.232;30.540;2022-07-09T18:32:48;5.62;;;4.98;;
49800;SDS011;35698;50.232;30.540;2022-07-09T18:33:51;6.71;;;5.08;;
49800;SDS011;35698;50.232;30.540;2022-07-09T18:34:55;9.28;;;5.09;;
49800;SDS011;35698;50.232;30.540;2022-07-09T18:35:58;7.22;;;4.81;;
49800;SDS011;35698;50.232;30.540;2022-07-09T18:37:04;4.93;;;4.44;;
49800;SDS011;35698;50.232;30.540;2022-07-09T18:38:45;7.37;;;5.10;;
49800;SDS011;35698;50.232;30.540;2022-07-09T18:39:49;7.41;;;4.14;;
49800;SDS011;35698;50.232;30.540;2022-07-09T18:40:52;5.29;;;4.37;;
49800;SDS011;35698;50.232;30.540;2022-07-09T18:41:56;7.80;;;4.18;;
49800;SDS011;35698;50.232;30.540;2022-07-09T18:43:01;4.77;;;4.33;;
49800;SDS011;35698;50.232;30.540;2022-07-09T18:44:05;7.04;;;4.97;;
49800;SDS011;35698;50.232;30.540;2022-07-09T18:45:09;6.12;;;4.62;;
49800;SDS011;35698;50.232;30.540;2022-07-09T18:46:12;6.96;;;4.68;;
49800;SDS011;35698;50.232;30.540;2022-07-09T18:47:25;8.01;;;4.71;;
49800;SDS011;35698;50.232;30.540;2022-07-09T18:48:28;5.48;;;4.94;;
49800;SDS011;35698;50.232;30.540;2022-07-09T18:49:31;6.31;;;5.59;;
49800;SDS011;35698;50.232;30.540;2022-07-09T18:50:35;6.59;;;5.20;;
49800;SDS011;35698;50.232;30.540;2022-07-09T19:10:58;6.63;;;5.97;;
